Time;durP1;ratioP1;P1;durP2;ratioP2;P2;SDS_P1;SDS_P2;PMS_P1;PMS_P2;Temp;Humidity;BMP_temperature;BMP_pressure;BME280_temperature;BME280_humidity;BME280_pressure;Samples;Min_cycle;Max_cycle;Signal;HPM_P1;HPM_P2
2023/08/19 00:01:11;;;;;;;29.92;26.83;;;;;;;20.50;100.00;101180.34;4916075;29;20032;-78
2023/08/19 00:03:37;;;;;;;29.17;26.17;;;;;;;20.55;100.00;101187.75;4899409;29;20028;-78
2023/08/19 00:06:08;;;;;;;31.20;28.00;;;;;;;20.59;100.00;101191.72;4916112;29;20438;-78
2023/08/19 00:08:34;;;;;;;30.25;27.30;;;;;;;20.47;100.00;101174.59;4916140;29;20445;-78
2023/08/19 00:10:59;;;;;;;31.05;27.90;;;;;;;20.52;100.00;101183.63;4916011;29;20032;-78
2023/08/19 00:13:25;;;;;;;31.25;28.05;;;;;;;20.38;100.00;101159.72;4915760;29;20131;-78
2023/08/19 00:15:50;;;;;;;30.05;27.00;;;;;;;20.34;100.00;101167.06;4916077;29;20024;-78
2023/08/19 00:18:16;;;;;;;29.42;26.40;;;;;;;20.44;100.00;101177.50;4916208;29;20024;-78
2023/08/19 00:20:42;;;;;;;28.65;25.67;;;;;;;20.24;100.00;101156.66;4916082;29;20385;-78
2023/08/19 00:23:07;;;;;;;29.25;26.35;;;;;;;20.36;100.00;101180.03;4916026;29;20107;-78
2023/08/19 00:25:35;;;;;;;30.88;27.67;;;;;;;20.23;100.00;101169.91;4919170;29;20032;-78
2023/08/19 00:28:03;;;;;;;31.00;27.85;;;;;;;20.33;100.00;101187.22;4919514;29;20028;-78
2023/08/19 00:30:29;;;;;;;28.52;25.73;;;;;;;20.21;100.00;101177.94;4919545;29;20067;-78
2023/08/19 00:32:54;;;;;;;31.55;28.25;;;;;;;20.33;100.00;101189.84;4919426;29;20438;-78
2023/08/19 00:35:20;;;;;;;31.92;28.63;;;;;;;20.24;100.00;101185.50;4919328;29;20063;-78
2023/08/19 00:37:45;;;;;;;31.15;27.92;;;;;;;20.26;100.00;101190.63;4919282;29;20368;-78
2023/08/19 00:40:15;;;;;;;31.30;28.20;;;;;;;20.19;100.00;101186.94;4919198;29;20360;-78
2023/08/19 00:42:41;;;;;;;31.45;28.33;;;;;;;20.22;100.00;101189.25;4919292;29;20032;-77
2023/08/19 00:45:08;;;;;;;31.40;28.10;;;;;;;20.25;100.00;101194.19;4919277;29;20031;-78
2023/08/19 00:47:34;;;;;;;34.63;31.02;;;;;;;20.28;100.00;101192.09;4919236;29;20111;-78
2023/08/19 00:50:00;;;;;;;31.35;28.17;;;;;;;20.27;100.00;101187.84;4919078;29;20040;-78
2023/08/19 00:52:25;;;;;;;33.97;30.50;;;;;;;20.30;100.00;101182.28;4918987;29;20036;-78
2023/08/19 00:54:51;;;;;;;32.30;29.20;;;;;;;20.19;100.00;101177.28;4918954;29;20128;-77
2023/08/19 00:57:16;;;;;;;33.88;30.38;;;;;;;20.21;100.00;101179.75;4918762;29;20047;-78
2023/08/19 00:59:42;;;;;;;34.17;30.77;;;;;;;20.19;100.00;101185.13;4918849;29;20467;-78
2023/08/19 01:02:07;;;;;;;36.35;32.65;;;;;;;20.22;100.00;101176.13;4919117;29;20040;-78
2023/08/19 01:04:33;;;;;;;36.28;32.53;;;;;;;20.20;100.00;101183.34;4918837;29;20059;-78
2023/08/19 01:07:28;;;;;;;35.75;32.33;;;;;;;20.17;100.00;101186.28;4918708;29;20039;-78
2023/08/19 01:10:10;;;;;;;37.05;33.17;;;;;;;20.17;100.00;101176.59;4841764;29;20126;-78
2023/08/19 01:12:53;;;;;;;36.17;32.58;;;;;;;20.18;100.00;101174.81;4842309;29;20046;-78
2023/08/19 01:15:23;;;;;;;37.70;33.97;;;;;;;20.10;100.00;101170.31;4842081;29;20038;-78
2023/08/19 01:17:49;;;;;;;38.13;34.15;;;;;;;20.12;100.00;101176.22;4842093;29;20112;-77
2023/08/19 01:20:16;;;;;;;39.10;35.30;;;;;;;20.13;100.00;101171.78;4841969;29;20497;-78
2023/08/19 01:22:51;;;;;;;40.17;36.08;;;;;;;20.13;100.00;101169.16;4841901;29;20109;-78
2023/08/19 01:25:18;;;;;;;40.10;36.13;;;;;;;20.11;100.00;101168.50;4841718;29;20042;-77
2023/08/19 01:27:43;;;;;;;38.28;34.53;;;;;;;20.09;100.00;101168.66;4841855;29;20044;-77
2023/08/19 01:30:09;;;;;;;38.83;34.92;;;;;;;20.04;100.00;101166.47;4842032;29;20034;-78
2023/08/19 01:32:35;;;;;;;37.08;33.47;;;;;;;19.98;100.00;101145.28;4841909;29;20077;-78
2023/08/19 01:35:01;;;;;;;39.75;35.63;;;;;;;20.16;100.00;101156.59;4841256;29;20070;-78
2023/08/19 01:37:35;;;;;;;39.08;35.20;;;;;;;20.20;100.00;101154.50;4841823;29;20034;-78
2023/08/19 01:40:01;;;;;;;37.20;33.40;;;;;;;20.20;100.00;101155.31;4838679;29;20041;-78
2023/08/19 01:42:27;;;;;;;37.63;33.72;;;;;;;20.25;100.00;101139.94;4844386;29;20068;-78
2023/08/19 01:44:54;;;;;;;35.17;31.65;;;;;;;20.26;100.00;101133.75;4859879;29;20049;-78
2023/08/19 01:47:20;;;;;;;35.85;32.17;;;;;;;20.24;100.00;101129.59;4900209;29;20048;-77
2023/08/19 01:49:46;;;;;;;37.67;33.85;;;;;;;20.37;100.00;101137.09;4917976;29;20390;-78
2023/08/19 01:52:12;;;;;;;36.05;32.38;;;;;;;20.30;100.00;101129.00;4918076;29;20060;-78
2023/08/19 01:54:38;;;;;;;34.97;31.58;;;;;;;20.26;100.00;101115.38;4918166;29;20119;-78
2023/08/19 01:57:04;;;;;;;36.60;33.08;;;;;;;20.42;100.00;101133.03;4917750;29;20059;-78
2023/08/19 01:59:30;;;;;;;35.65;31.85;;;;;;;20.47;100.00;101143.94;4918059;29;20028;-78
2023/08/19 02:01:55;;;;;;;36.22;32.75;;;;;;;20.48;100.00;101137.69;4917871;29;20043;-78
2023/08/19 02:04:20;;;;;;;37.13;33.35;;;;;;;20.50;100.00;101135.75;4917972;29;20087;-78
2023/08/19 02:06:46;;;;;;;32.55;29.35;;;;;;;20.43;100.00;101118.13;4917800;29;20102;-78
2023/08/19 02:09:11;;;;;;;35.80;31.98;;;;;;;20.45;100.00;101119.66;4917796;29;20115;-78
2023/08/19 02:11:36;;;;;;;35.45;31.77;;;;;;;20.53;100.00;101130.19;4917688;29;20027;-78
2023/08/19 02:14:02;;;;;;;34.05;30.65;;;;;;;20.48;100.00;101121.13;4917531;29;20036;-78
2023/08/19 02:16:27;;;;;;;34.97;31.58;;;;;;;20.40;100.00;101110.56;4916283;29;20031;-78
2023/08/19 02:18:52;;;;;;;35.97;32.35;;;;;;;20.42;100.00;101098.09;4917687;29;20036;-78
2023/08/19 02:21:18;;;;;;;36.35;32.50;;;;;;;20.47;100.00;101104.56;4917587;29;20036;-78
2023/08/19 02:23:43;;;;;;;34.97;31.42;;;;;;;20.58;100.00;101121.84;4917498;29;20382;-77
2023/08/19 02:26:08;;;;;;;35.13;31.55;;;;;;;20.50;100.00;101098.19;4917354;29;20028;-78
2023/08/19 02:28:34;;;;;;;34.80;31.33;;;;;;;20.60;100.00;101119.91;4917523;29;20028;-78
2023/08/19 02:31:02;;;;;;;33.40;29.90;;;;;;;20.64;100.00;101113.34;4917298;29;20039;-78
2023/08/19 02:33:28;;;;;;;33.83;30.33;;;;;;;20.42;100.00;101079.75;4917284;29;20474;-78
2023/08/19 02:35:54;;;;;;;35.88;32.28;;;;;;;20.63;100.00;101117.78;4929733;29;20054;-77
2023/08/19 02:38:19;;;;;;;33.15;29.92;;;;;;;20.59;100.00;101103.34;4936150;29;20046;-77
2023/08/19 02:40:51;;;;;;;32.58;29.33;;;;;;;20.61;100.00;101109.25;4936160;29;20059;-78
2023/08/19 02:43:17;;;;;;;34.90;31.13;;;;;;;20.65;100.00;101112.41;4919071;29;20049;-78
2023/08/19 02:45:42;;;;;;;32.85;29.55;;;;;;;20.59;100.00;101092.00;4935781;29;20111;-78
2023/08/19 02:48:08;;;;;;;32.95;29.55;;;;;;;20.63;100.00;101099.41;4935233;29;20114;-77
2023/08/19 02:50:33;;;;;;;32.10;28.75;;;;;;;20.64;100.00;101097.59;4936157;29;20031;-78
2023/08/19 02:52:59;;;;;;;33.05;29.65;;;;;;;20.64;100.00;101097.59;4935993;29;20036;-78
2023/08/19 02:55:24;;;;;;;32.42;29.17;;;;;;;20.60;100.00;101083.16;4935986;29;20071;-78
2023/08/19 02:57:50;;;;;;;33.60;30.10;;;;;;;20.66;100.00;101095.69;4935663;29;20119;-78
2023/08/19 03:00:16;;;;;;;31.92;28.75;;;;;;;20.61;100.00;101092.69;4935789;29;20039;-78
2023/08/19 03:02:47;;;;;;;33.35;29.95;;;;;;;20.59;100.00;101103.34;4935889;29;20047;-78
2023/08/19 03:05:17;;;;;;;32.08;28.85;;;;;;;19.62;100.00;100938.28;5322046;23;20175;-78
2023/08/19 03:07:42;;;;;;;31.85;28.65;;;;;;;20.68;100.00;101095.50;4915208;29;20139;-78
2023/08/19 03:10:08;;;;;;;31.70;28.55;;;;;;;20.67;100.00;101094.69;4916833;29;20123;-78
2023/08/19 03:12:33;;;;;;;31.15;28.05;;;;;;;20.68;100.00;101090.25;4916434;29;20024;-78
2023/08/19 03:14:58;;;;;;;31.38;28.23;;;;;;;20.69;100.00;101095.34;4916449;29;20039;-78
2023/08/19 03:17:24;;;;;;;31.23;28.15;;;;;;;20.57;100.00;101067.75;4916849;29;20024;-78
2023/08/19 03:19:50;;;;;;;30.55;27.33;;;;;;;20.70;100.00;101098.78;4916598;29;20034;-78
2023/08/19 03:22:16;;;;;;;31.63;28.35;;;;;;;20.69;100.00;101097.97;4916450;29;20028;-78
2023/08/19 03:24:41;;;;;;;30.75;27.60;;;;;;;20.61;100.00;101083.00;4916703;29;20106;-78
2023/08/19 03:27:06;;;;;;;30.50;27.48;;;;;;;20.69;100.00;101089.28;4916422;29;20382;-78
2023/08/19 03:29:32;;;;;;;30.73;27.58;;;;;;;20.59;100.00;101079.72;4916610;29;20489;-78
2023/08/19 03:31:57;;;;;;;30.30;27.30;;;;;;;20.67;100.00;101086.81;4916413;29;20032;-78
2023/08/19 03:34:24;;;;;;;29.85;26.73;;;;;;;20.68;100.00;101087.63;4916470;29;20439;-78
2023/08/19 03:36:49;;;;;;;28.13;25.33;;;;;;;20.72;100.00;101086.34;4916404;29;20063;-78
2023/08/19 03:39:15;;;;;;;28.40;25.52;;;;;;;20.69;100.00;101092.72;4916417;29;20059;-78
2023/08/19 03:41:40;;;;;;;27.52;24.77;;;;;;;20.71;100.00;101093.38;4916442;29;20030;-78
2023/08/19 03:44:06;;;;;;;27.45;24.73;;;;;;;20.69;100.00;101090.09;4916258;29;20036;-78
2023/08/19 03:46:31;;;;;;;27.55;24.48;;;;;;;20.70;100.00;101099.63;4916174;29;20056;-78
2023/08/19 03:48:56;;;;;;;25.23;22.83;;;;;;;20.69;100.00;101097.97;4916298;29;20075;-78
2023/08/19 03:51:22;;;;;;;27.00;24.33;;;;;;;20.68;100.00;101092.88;4916322;29;20040;-78
2023/08/19 03:53:47;;;;;;;25.75;23.15;;;;;;;20.73;100.00;101101.09;4915934;29;20043;-78
2023/08/19 03:56:12;;;;;;;28.02;24.17;;;;;;;20.72;100.00;101102.09;4916316;29;20043;-78
2023/08/19 03:58:38;;;;;;;25.10;22.50;;;;;;;20.71;100.00;101087.31;4917006;29;20032;-78
2023/08/19 04:01:07;;;;;;;25.33;22.92;;;;;;;20.72;100.00;101092.41;4920206;29;20456;-78
2023/08/19 04:03:33;;;;;;;25.15;22.27;;;;;;;20.75;100.00;101097.38;4920114;29;20032;-78
2023/08/19 04:05:59;;;;;;;25.48;23.10;;;;;;;20.75;100.00;101094.75;4919898;29;20052;-77
2023/08/19 04:08:25;;;;;;;24.20;21.75;;;;;;;20.72;100.00;101088.97;4919674;29;20042;-78
2023/08/19 04:10:50;;;;;;;25.58;22.92;;;;;;;20.76;100.00;101100.81;4919811;29;20036;-78
2023/08/19 04:13:17;;;;;;;24.00;21.58;;;;;;;20.73;100.00;101101.09;4919603;29;20028;-78
2023/08/19 04:15:42;;;;;;;23.50;21.13;;;;;;;20.75;100.00;101099.16;4919781;29;20055;-78
2023/08/19 04:18:08;;;;;;;24.35;21.90;;;;;;;20.75;100.00;101101.78;4919802;29;20072;-78
2023/08/19 04:20:38;;;;;;;22.60;20.33;;;;;;;20.74;100.00;101100.94;4919858;29;20029;-78
2023/08/19 04:23:04;;;;;;;25.63;21.98;;;;;;;20.74;100.00;101097.50;4919523;29;20039;-78
2023/08/19 04:25:30;;;;;;;23.90;21.45;;;;;;;20.70;100.00;101101.41;4919604;29;20050;-78
2023/08/19 04:27:55;;;;;;;24.02;21.70;;;;;;;20.72;100.00;101108.16;4919465;29;20482;-79
2023/08/19 04:30:20;;;;;;;22.92;20.67;;;;;;;20.65;100.00;101098.44;4919359;29;20024;-78
2023/08/19 04:32:46;;;;;;;23.00;20.67;;;;;;;20.54;100.00;101084.59;4919496;29;20043;-78
2023/08/19 04:35:12;;;;;;;24.52;22.13;;;;;;;20.54;100.00;101078.53;4919567;29;20029;-78
2023/08/19 04:37:37;;;;;;;24.33;21.02;;;;;;;20.61;100.00;101090.06;4919503;29;20035;-78
2023/08/19 04:40:06;;;;;;;23.42;21.00;;;;;;;20.71;100.00;101111.75;4919322;29;20467;-77
2023/08/19 04:42:31;;;;;;;23.88;21.33;;;;;;;20.68;100.00;101109.44;4919383;29;20028;-78
2023/08/19 04:44:57;;;;;;;23.52;21.15;;;;;;;20.54;100.00;101086.41;4919292;29;20091;-78
2023/08/19 04:47:22;;;;;;;22.90;20.70;;;;;;;20.68;100.00;101117.31;4919354;29;20095;-78
2023/08/19 04:49:47;;;;;;;24.77;21.77;;;;;;;20.67;100.00;101118.31;4919029;29;20390;-78
2023/08/19 04:52:13;;;;;;;22.98;20.60;;;;;;;20.68;100.00;101121.75;4919069;29;20024;-78
2023/08/19 04:54:38;;;;;;;23.75;21.25;;;;;;;20.66;100.00;101115.84;4917632;29;20044;-78
2023/08/19 04:57:03;;;;;;;23.42;21.23;;;;;;;20.69;100.00;101112.91;4919103;29;20035;-78
2023/08/19 04:59:29;;;;;;;23.67;21.23;;;;;;;20.69;100.00;101113.72;4918671;29;20031;-78
2023/08/19 05:01:54;;;;;;;21.98;19.77;;;;;;;20.64;100.00;101105.47;4919110;29;20079;-78
2023/08/19 05:04:19;;;;;;;22.67;20.27;;;;;;;20.65;100.00;101091.41;4918865;29;20024;-78
2023/08/19 05:06:45;;;;;;;22.33;20.02;;;;;;;20.61;100.00;101088.25;4918751;29;20059;-78
2023/08/19 05:09:10;;;;;;;21.60;19.45;;;;;;;20.68;100.00;101093.72;4919006;29;20032;-78
2023/08/19 05:11:35;;;;;;;21.92;19.67;;;;;;;20.81;100.00;101109.84;4917784;29;20095;-77
2023/08/19 05:14:01;;;;;;;21.27;19.10;;;;;;;20.84;100.00;101106.94;4917026;29;20095;-78
2023/08/19 05:16:27;;;;;;;20.55;18.52;;;;;;;20.79;100.00;101103.13;4918775;29;20028;-78
2023/08/19 05:19:20;;;;;;;22.50;20.13;;;;;;;20.91;100.00;101117.59;4918529;29;20039;-78
2023/08/19 05:21:48;;;;;;;19.77;17.98;;;;;;;20.93;100.00;101126.13;4918711;29;20090;-77
2023/08/19 05:24:14;;;;;;;19.23;17.25;;;;;;;20.96;100.00;101119.78;4918465;29;20028;-77
2023/08/19 05:26:46;;;;;;;19.42;17.48;;;;;;;20.98;100.00;101113.38;4918716;29;20066;-78
2023/08/19 05:29:12;;;;;;;18.90;16.88;;;;;;;20.97;100.00;101113.53;4918516;29;20035;-78
2023/08/19 05:31:38;;;;;;;18.33;16.48;;;;;;;21.05;100.00;101121.47;4918425;29;20088;-77
2023/08/19 05:34:04;;;;;;;18.63;16.45;;;;;;;21.09;100.00;101131.47;4918354;29;20067;-77
2023/08/19 05:36:29;;;;;;;18.33;16.52;;;;;;;21.04;100.00;101114.53;4918399;29;20134;-77
2023/08/19 05:38:55;;;;;;;20.02;17.75;;;;;;;21.16;100.00;101142.19;4918227;29;20079;-77
2023/08/19 05:41:20;;;;;;;18.85;16.95;;;;;;;21.09;100.00;101122.78;4918345;29;20051;-78
2023/08/19 05:43:45;;;;;;;19.67;17.60;;;;;;;21.23;100.00;101144.97;4918386;29;20111;-78
2023/08/19 05:46:11;;;;;;;18.63;16.75;;;;;;;21.26;100.00;101129.78;4918077;29;20103;-77
2023/08/19 05:48:36;;;;;;;18.95;17.05;;;;;;;21.23;100.00;101124.78;4918089;29;20119;-78
2023/08/19 05:51:03;;;;;;;18.80;16.83;;;;;;;21.29;100.00;101129.44;4918164;29;20024;-78
2023/08/19 05:53:28;;;;;;;17.77;15.95;;;;;;;21.32;100.00;101121.25;4917891;29;20489;-78
2023/08/19 05:55:53;;;;;;;18.75;16.95;;;;;;;21.32;100.00;101120.44;4918142;29;20031;-78
2023/08/19 05:58:19;;;;;;;19.05;17.25;;;;;;;21.53;100.00;101130.50;4917964;29;20051;-77
2023/08/19 06:00:44;;;;;;;18.55;16.75;;;;;;;21.59;100.00;101135.13;4917560;29;20071;-77
2023/08/19 06:03:09;;;;;;;19.05;17.13;;;;;;;21.62;100.00;101124.28;4917849;29;20051;-78
2023/08/19 06:05:37;;;;;;;17.10;15.30;;;;;;;21.61;100.00;101125.28;4917712;29;20067;-77
2023/08/19 06:08:04;;;;;;;18.48;15.43;;;;;;;21.70;100.00;101151.41;4917488;29;20055;-77
2023/08/19 06:10:30;;;;;;;16.27;14.48;;;;;;;21.83;100.00;101150.97;4917666;29;20059;-77
2023/08/19 06:12:55;;;;;;;17.08;15.30;;;;;;;21.87;100.00;101154.06;4917352;29;20052;-77
2023/08/19 06:15:21;;;;;;;18.02;15.00;;;;;;;21.82;100.00;101136.16;4917606;29;20039;-77
2023/08/19 06:17:46;;;;;;;16.70;14.93;;;;;;;22.00;100.00;101157.03;4917396;29;20531;-77
2023/08/19 06:20:11;;;;;;;16.05;14.40;;;;;;;22.12;100.00;101163.66;4917556;29;20028;-78
2023/08/19 06:22:37;;;;;;;15.30;13.57;;;;;;;22.22;100.00;101156.44;4928023;29;20023;-75
2023/08/19 06:25:03;;;;;;;14.23;12.75;;;;;;;22.37;100.00;101163.66;4936677;29;20394;-74
2023/08/19 06:27:28;;;;;;;14.23;12.48;;;;;;;22.48;100.00;101166.78;4936011;29;20027;-77
2023/08/19 06:29:54;;;;;;;14.32;12.52;;;;;;;22.55;100.00;101156.41;4935935;29;20030;-76
2023/08/19 06:32:19;;;;;;;14.40;12.32;;;;;;;22.65;100.00;101164.97;4935978;29;20473;-74
2023/08/19 06:40:17;;;;;;;13.18;11.50;;;;;;;22.96;100.00;101186.16;5421142;23;20532;-77
2023/08/19 06:42:43;;;;;;;12.63;11.18;;;;;;;22.96;100.00;101149.28;4917224;29;20031;-78
2023/08/19 06:45:16;;;;;;;12.13;10.75;;;;;;;23.58;100.00;101188.06;4917019;29;20032;-79
2023/08/19 06:47:42;;;;;;;11.88;10.27;;;;;;;24.22;100.00;101205.31;4917036;29;20172;-79
2023/08/19 06:50:08;;;;;;;13.13;11.32;;;;;;;24.80;100.00;101190.66;4899679;29;20187;-78
2023/08/19 06:52:34;;;;;;;12.38;10.70;;;;;;;25.18;100.00;101201.19;4916745;29;20035;-78
2023/08/19 06:55:00;;;;;;;15.48;9.90;;;;;;;25.46;97.27;101202.13;4916947;29;20036;-77
2023/08/19 06:57:32;;;;;;;14.18;10.13;;;;;;;25.61;97.07;101196.81;4916588;29;20075;-78
2023/08/19 07:00:12;;;;;;;15.85;10.70;;;;;;;25.48;97.05;101199.31;4916748;29;20116;-79
2023/08/19 07:02:38;;;;;;;12.13;10.43;;;;;;;25.33;98.13;101209.09;4916558;29;20486;-78
2023/08/19 07:05:15;;;;;;;12.18;10.88;;;;;;;25.12;99.21;101215.13;4916568;29;20182;-78
2023/08/19 07:07:48;;;;;;;12.45;10.10;;;;;;;24.88;98.87;101211.72;4917019;29;20028;-78
2023/08/19 07:18:43;;;;;;;17.02;10.23;;;;;;;24.67;100.00;101158.75;5004721;23;20064;-80
2023/08/19 07:21:23;;;;;;;;;;;;;;;;;;;;;
2023/08/19 07:23:51;;;;;;;13.03;9.50;;;;;;;25.10;93.92;101098.19;4864655;29;20040;-79
2023/08/19 07:26:28;;;;;;;11.20;8.52;;;;;;;24.96;94.81;101060.19;4902500;29;20431;-78
2023/08/19 07:28:54;;;;;;;10.60;9.18;;;;;;;25.25;92.39;101096.34;4916641;29;20389;-78
2023/08/19 07:31:23;;;;;;;12.82;8.43;;;;;;;26.10;92.87;101222.63;4916312;29;20022;-79
2023/08/19 07:33:49;;;;;;;10.90;7.80;;;;;;;26.05;90.20;101200.34;4915874;29;20106;-78
2023/08/19 07:36:15;;;;;;;13.32;8.30;;;;;;;26.39;90.23;101226.97;4916344;29;20024;-77
2023/08/19 07:38:40;;;;;;;9.65;7.45;;;;;;;26.51;90.13;101235.22;4899514;29;20108;-77
2023/08/19 07:41:06;;;;;;;10.13;8.05;;;;;;;26.38;89.07;101195.41;4916396;29;20056;-78
2023/08/19 07:43:31;;;;;;;10.77;7.18;;;;;;;26.52;87.86;101211.19;4916235;29;20107;-77
2023/08/19 07:45:56;;;;;;;11.75;7.72;;;;;;;26.53;86.40;101236.66;4905936;29;20048;-77
2023/08/19 07:48:22;;;;;;;12.10;7.55;;;;;;;26.66;88.56;101249.22;4897660;29;20036;-77
2023/08/19 07:50:47;;;;;;;11.77;8.15;;;;;;;26.68;86.01;101259.63;4897401;29;20040;-80
2023/08/19 07:53:12;;;;;;;13.43;8.05;;;;;;;26.38;86.06;101220.06;4897140;29;20036;-78
2023/08/19 07:55:38;;;;;;;8.98;7.30;;;;;;;26.52;87.79;101248.28;4897446;29;20056;-79
2023/08/19 07:58:04;;;;;;;9.93;7.70;;;;;;;26.48;87.77;101244.38;4897141;29;20025;-78
2023/08/19 08:00:29;;;;;;;11.98;7.32;;;;;;;26.61;88.22;101242.84;4897209;29;20035;-80
2023/08/19 08:02:59;;;;;;;13.52;8.23;;;;;;;26.66;87.35;101251.06;4897109;29;20501;-80
2023/08/19 08:05:24;;;;;;;12.38;7.55;;;;;;;26.55;87.00;101247.09;4897028;29;20032;-80
2023/08/19 08:07:49;;;;;;;11.38;8.00;;;;;;;26.53;86.99;101264.97;4897228;29;20031;-81
2023/08/19 08:10:15;;;;;;;9.93;7.93;;;;;;;26.37;87.82;101255.50;4897248;29;20375;-80
2023/08/19 08:12:40;;;;;;;11.02;7.60;;;;;;;26.04;89.60;101218.06;4897343;29;20029;-77
2023/08/19 08:15:06;;;;;;;10.60;7.95;;;;;;;26.15;90.08;101236.09;4897256;29;20487;-80
2023/08/19 08:17:31;;;;;;;11.30;8.40;;;;;;;26.05;89.05;101240.06;4897250;29;20581;-80
2023/08/19 08:19:57;;;;;;;9.85;7.72;;;;;;;25.81;91.41;101222.72;4897164;29;20457;-80
2023/08/19 08:22:25;;;;;;;11.68;9.20;;;;;;;25.82;nan;101238.41;4897133;29;20118;-81
2023/08/19 08:24:50;;;;;;;12.75;8.52;;;;;;;25.90;91.12;101258.63;4897052;29;20029;-80
2023/08/19 08:27:16;;;;;;;11.27;8.70;;;;;;;25.86;92.17;101263.50;4897042;29;20033;-80
2023/08/19 08:29:41;;;;;;;10.82;8.70;;;;;;;25.74;91.80;101257.03;4896921;29;20036;-79
2023/08/19 08:32:08;;;;;;;10.55;8.60;;;;;;;25.68;92.45;101263.03;4896906;29;20065;-81
2023/08/19 08:34:33;;;;;;;10.05;8.32;;;;;;;25.63;94.71;101258.28;4897168;29;20025;-81
2023/08/19 08:36:59;;;;;;;10.38;8.57;;;;;;;25.70;93.68;101284.84;4897058;29;20040;-81
2023/08/19 08:39:24;;;;;;;12.20;9.20;;;;;;;25.62;94.27;101300.78;4897084;29;20024;-80
2023/08/19 08:41:50;;;;;;;12.93;8.90;;;;;;;25.54;94.77;101300.88;4896720;29;20047;-81
2023/08/19 08:44:16;;;;;;;13.23;8.80;;;;;;;25.46;94.24;101289.38;4897240;29;20115;-80
2023/08/19 08:46:43;;;;;;;10.02;8.32;;;;;;;25.40;95.88;101313.13;4899239;29;20043;-82
2023/08/19 08:49:09;;;;;;;11.10;8.50;;;;;;;25.22;98.14;101294.13;4900155;29;20025;-78
2023/08/19 08:51:35;;;;;;;12.35;9.30;;;;;;;25.24;98.04;101310.63;4900352;29;20031;-80
2023/08/19 08:54:02;;;;;;;12.07;8.88;;;;;;;25.15;99.29;101318.63;4918832;29;20121;-80
2023/08/19 08:56:27;;;;;;;14.02;9.68;;;;;;;25.09;98.98;101321.19;4919180;29;20028;-78
2023/08/19 08:58:53;;;;;;;12.05;9.18;;;;;;;25.06;100.00;101322.34;4919287;29;20542;-77
2023/08/19 09:01:22;;;;;;;11.10;9.32;;;;;;;25.06;100.00;101327.63;4919113;29;20028;-81
2023/08/19 09:03:50;;;;;;;13.30;9.13;;;;;;;25.04;100.00;101328.81;4918530;29;20040;-81
2023/08/19 09:06:17;;;;;;;11.70;8.90;;;;;;;24.96;100.00;101319.13;4919168;29;20062;-81
2023/08/19 09:08:51;;;;;;;11.23;9.20;;;;;;;25.01;100.00;101337.09;4919012;29;20032;-80
2023/08/19 09:11:22;;;;;;;11.10;9.32;;;;;;;24.93;100.00;101329.22;4901801;29;20406;-83
2023/08/19 09:13:47;;;;;;;;;;;;;;;25.11;100.00;101351.72;4919183;29;20438;-80
2023/08/19 09:16:13;;;;;;;15.13;9.45;;;;;;;25.16;100.00;101337.97;4918944;29;19915;-82
2023/08/19 09:18:39;;;;;;;13.00;9.07;;;;;;;25.42;98.39;101353.41;4918356;29;20414;-82
2023/08/19 09:21:06;;;;;;;12.35;9.32;;;;;;;25.51;99.28;101348.84;4918929;29;20083;-80
2023/08/19 09:23:31;;;;;;;12.73;10.02;;;;;;;25.68;98.03;101345.03;4918417;29;20118;-80
2023/08/19 09:26:00;;;;;;;11.93;9.70;;;;;;;25.72;96.89;101320.69;4918524;29;20156;-80
2023/08/19 09:28:26;;;;;;;11.25;8.90;;;;;;;26.21;92.46;101361.59;4918869;29;20111;-79
2023/08/19 09:30:52;;;;;;;11.93;9.15;;;;;;;26.20;94.93;101330.84;4900854;29;20092;-81
2023/08/19 09:33:19;;;;;;;11.80;10.48;;;;;;;26.62;91.52;101356.56;4900805;29;20071;-81
2023/08/19 09:35:54;;;;;;;12.13;9.80;;;;;;;26.82;89.68;101370.00;4918232;29;20060;-81
2023/08/19 09:38:20;;;;;;;13.32;10.65;;;;;;;26.79;88.95;101344.72;4918276;29;20446;-80
2023/08/19 09:40:57;;;;;;;12.90;10.60;;;;;;;26.77;88.79;101330.03;4927913;29;20035;-79
2023/08/19 09:43:22;;;;;;;13.80;10.25;;;;;;;27.10;88.80;101384.16;4932677;29;20036;-79
2023/08/19 09:45:48;;;;;;;11.90;10.60;;;;;;;27.02;87.51;101351.63;4936606;29;20150;-79
2023/08/19 09:48:14;;;;;;;13.68;11.15;;;;;;;27.17;87.60;101365.66;4936668;29;20051;-79
2023/08/19 09:50:44;;;;;;;11.52;10.10;;;;;;;27.44;85.45;101401.13;4936552;29;20114;-79
2023/08/19 09:53:15;;;;;;;14.25;11.32;;;;;;;27.27;85.33;101384.69;4936551;29;20082;-79
2023/08/19 09:55:45;;;;;;;12.77;10.32;;;;;;;27.32;86.23;101405.31;4937052;29;20028;-77
2023/08/19 09:58:10;;;;;;;13.10;10.77;;;;;;;27.37;85.28;101405.56;4919042;29;20489;-79
2023/08/19 10:00:36;;;;;;;12.57;10.75;;;;;;;27.47;86.33;101395.44;4936665;29;20038;-80
2023/08/19 10:03:02;;;;;;;13.05;10.75;;;;;;;27.32;83.46;101389.41;4936906;29;20033;-80
2023/08/19 10:05:31;;;;;;;12.73;10.30;;;;;;;27.48;86.81;101404.22;4936549;29;20031;-79
2023/08/19 10:08:03;;;;;;;11.68;10.40;;;;;;;27.88;85.96;101418.56;4919610;29;20115;-79
2023/08/19 10:10:31;;;;;;;15.40;11.75;;;;;;;28.17;82.33;101426.28;4936885;29;20039;-77
2023/08/19 10:12:57;;;;;;;14.90;11.25;;;;;;;28.51;82.72;101417.44;4936387;29;20027;-78
2023/08/19 10:15:26;;;;;;;11.85;9.85;;;;;;;28.63;80.41;101399.06;4936536;29;20032;-79
2023/08/19 10:17:56;;;;;;;12.80;11.10;;;;;;;28.77;75.91;101419.34;4936615;29;20027;-78
2023/08/19 10:20:25;;;;;;;11.63;10.20;;;;;;;28.49;76.25;101411.50;4936002;29;20590;-79
2023/08/19 10:22:54;;;;;;;14.77;11.18;;;;;;;28.20;78.41;101412.59;4918376;29;20032;-77
2023/08/19 10:25:20;;;;;;;15.00;11.00;;;;;;;28.07;77.32;101447.06;4917745;29;20099;-77
2023/08/19 10:27:46;;;;;;;13.20;9.88;;;;;;;27.82;79.49;101451.19;4917292;29;20087;-78
2023/08/19 10:30:28;;;;;;;14.82;10.70;;;;;;;27.77;79.89;101446.50;4917400;29;20032;-78
2023/08/19 10:32:53;;;;;;;11.65;10.07;;;;;;;27.74;80.22;101448.72;4917000;29;20029;-76
2023/08/19 10:35:19;;;;;;;11.88;10.00;;;;;;;27.60;79.47;101448.59;4917153;29;20372;-77
2023/08/19 10:37:50;;;;;;;11.70;10.50;;;;;;;27.53;79.53;101447.75;4917137;29;20020;-76
2023/08/19 10:40:24;;;;;;;13.02;10.10;;;;;;;27.58;80.34;101425.91;4917373;29;20394;-78
2023/08/19 10:42:58;;;;;;;12.93;10.20;;;;;;;27.79;79.48;101435.69;4916968;29;20032;-77
2023/08/19 10:45:31;;;;;;;13.27;9.88;;;;;;;28.34;79.53;101436.59;4916770;29;20028;-79
2023/08/19 10:47:57;;;;;;;13.52;10.52;;;;;;;28.52;76.19;101463.44;4899918;29;20462;-78
2023/08/19 10:50:24;;;;;;;12.32;9.95;;;;;;;28.75;75.17;101481.69;4916810;29;20111;-76
2023/08/19 10:52:57;;;;;;;14.43;11.18;;;;;;;28.62;75.21;101482.50;4916915;29;20020;-77
2023/08/19 10:55:23;;;;;;;12.55;9.80;;;;;;;28.24;75.16;101493.53;4916673;29;20064;-78
2023/08/19 10:57:48;;;;;;;10.00;8.65;;;;;;;27.89;74.51;101499.84;4916732;29;20036;-77
2023/08/19 11:00:14;;;;;;;9.13;7.75;;;;;;;27.63;75.31;101511.06;4916822;29;20028;-78
2023/08/19 11:02:40;;;;;;;10.18;6.07;;;;;;;27.29;73.12;101517.09;4916757;29;20095;-79
2023/08/19 11:05:06;;;;;;;7.32;5.35;;;;;;;27.01;73.70;101523.09;4916529;29;20083;-79
2023/08/19 11:07:33;;;;;;;7.38;5.63;;;;;;;26.70;75.25;101504.81;4916357;29;20047;-79
2023/08/19 11:09:59;;;;;;;8.00;5.68;;;;;;;26.63;75.41;101509.22;4898946;29;20118;-79
2023/08/19 11:12:28;;;;;;;7.07;5.88;;;;;;;26.57;76.64;101510.78;4916614;29;20032;-78
2023/08/19 11:14:57;;;;;;;8.93;6.10;;;;;;;26.44;76.89;101499.19;4916462;29;20024;-75
2023/08/19 11:17:30;;;;;;;9.30;6.25;;;;;;;26.48;78.19;101541.03;4916536;29;20107;-79
2023/08/19 11:19:57;;;;;;;10.23;7.07;;;;;;;26.14;78.02;101507.09;4916209;29;20052;-80
2023/08/19 11:22:23;;;;;;;12.15;7.47;;;;;;;26.21;80.69;101552.22;4916404;29;20056;-80